Time;durP1;ratioP1;P1;durP2;ratioP2;P2;SDS_P1;SDS_P2;PMS_P1;PMS_P2;Temp;Humidity;BMP_temperature;BMP_pressure;BME280_temperature;BME280_humidity;BME280_pressure;Samples;Min_cycle;Max_cycle;Signal;HPM_P1;HPM_P2
2022/01/13 04:51:39;;;;;;;95.05;27.35;;;;;;;;;;6227987;22;20015;-94
2022/01/13 04:54:09;;;;;;;88.07;25.27;;;;;;;;;;6272046;22;20012;-92
2022/01/13 04:59:18;;;;;;;86.63;26.13;;;;;;;;;;6266665;23;20031;-93
2022/01/13 05:01:45;;;;;;;82.22;24.35;;;;;;;;;;6237343;23;20025;-91
2022/01/13 05:04:12;;;;;;;88.53;26.63;;;;;;;;;;6227588;23;20083;-92
2022/01/13 05:06:38;;;;;;;85.80;25.90;;;;;;;;;;6234967;23;20024;-92
2022/01/13 05:09:05;;;;;;;98.85;28.75;;;;;;;;;;6251785;23;20174;-94
2022/01/13 05:11:44;;;;;;;89.82;26.67;;;;;;;;;;6239112;23;20028;-94
2022/01/13 05:14:10;;;;;;;79.55;24.67;;;;;;;;;;6239788;22;20392;-93
2022/01/13 05:16:53;;;;;;;76.40;25.33;;;;;;;;;;6235955;23;20035;-93
2022/01/13 05:20:07;;;;;;;79.35;26.08;;;;;;;;;;6238975;22;20036;-93
2022/01/13 05:22:33;;;;;;;78.97;26.83;;;;;;;;;;6266506;22;20028;-93
2022/01/13 05:25:19;;;;;;;84.43;27.08;;;;;;;;;;6238003;23;20028;-94
2022/01/13 05:27:46;;;;;;;79.60;25.42;;;;;;;;;;6237277;22;20032;-93
2022/01/13 05:30:15;;;;;;;80.88;25.92;;;;;;;;;;6243260;22;20023;-93
2022/01/13 05:32:56;;;;;;;84.70;27.83;;;;;;;;;;6240724;23;20066;-94
2022/01/13 05:35:24;;;;;;;105.15;25.58;;;;;;;;;;6234563;23;20410;-94
2022/01/13 05:37:52;;;;;;;145.20;28.38;;;;;;;;;;6235101;23;20102;-93
2022/01/13 05:40:19;;;;;;;81.22;23.80;;;;;;;;;;6235155;23;20028;-92
2022/01/13 05:42:45;;;;;;;87.43;25.15;;;;;;;;;;6238923;23;20258;-93
2022/01/13 05:45:18;;;;;;;81.30;24.40;;;;;;;;;;6243477;22;20118;-93
2022/01/13 05:47:46;;;;;;;106.22;25.85;;;;;;;;;;6241028;22;20016;-93
2022/01/13 05:50:13;;;;;;;90.85;25.77;;;;;;;;;;6243780;22;20013;-93
2022/01/13 05:56:35;;;;;;;121.45;26.33;;;;;;;;;;6328203;22;20021;-94
2022/01/13 05:59:12;;;;;;;74.88;24.33;;;;;;;;;;6310809;22;20027;-92
2022/01/13 06:01:43;;;;;;;115.20;26.00;;;;;;;;;;6309788;22;20036;-93
2022/01/13 06:04:15;;;;;;;87.15;25.45;;;;;;;;;;6309806;22;20067;-93
2022/01/13 06:06:41;;;;;;;83.68;24.42;;;;;;;;;;6308693;22;20042;-93
2022/01/13 06:16:06;;;;;;;84.95;24.55;;;;;;;;;;6333065;22;20014;-94
2022/01/13 06:18:33;;;;;;;66.25;22.83;;;;;;;;;;6305681;22;20082;-94
2022/01/13 06:21:00;;;;;;;79.60;23.50;;;;;;;;;;6305964;22;20420;-95
2022/01/13 06:23:33;;;;;;;111.22;24.60;;;;;;;;;;6307367;22;20081;-95
2022/01/13 06:26:02;;;;;;;86.25;23.25;;;;;;;;;;6306793;22;20030;-94
2022/01/13 06:28:33;;;;;;;79.22;23.10;;;;;;;;;;6306944;22;20031;-93
2022/01/13 06:31:02;;;;;;;79.20;23.45;;;;;;;;;;6305338;22;20037;-93
2022/01/13 06:33:48;;;;;;;68.50;22.13;;;;;;;;;;6306364;22;20034;-93
2022/01/13 06:36:16;;;;;;;85.88;24.30;;;;;;;;;;6307855;22;20026;-94
2022/01/13 06:38:48;;;;;;;73.78;22.27;;;;;;;;;;6308357;22;20023;-93
2022/01/13 06:41:18;;;;;;;67.22;22.85;;;;;;;;;;6308217;22;20025;-94
2022/01/13 06:43:52;;;;;;;67.85;22.98;;;;;;;;;;6309402;22;20007;-94
2022/01/13 06:46:22;;;;;;;70.25;21.30;;;;;;;;;;6308296;22;20026;-93
2022/01/13 06:48:50;;;;;;;70.50;21.75;;;;;;;;;;6308092;22;20038;-94
2022/01/13 06:51:18;;;;;;;68.63;22.50;;;;;;;;;;6306605;22;20101;-94
2022/01/13 06:54:05;;;;;;;62.38;20.55;;;;;;;;;;6310731;22;20022;-94
2022/01/13 06:56:35;;;;;;;62.10;20.58;;;;;;;;;;6307592;22;20092;-94
2022/01/13 06:59:08;;;;;;;62.63;21.70;;;;;;;;;;6307488;22;20027;-95
2022/01/13 07:01:56;;;;;;;70.20;21.30;;;;;;;;;;6305844;22;20029;-94
2022/01/13 07:04:37;;;;;;;67.10;21.40;;;;;;;;;;6308414;22;20059;-93
2022/01/13 07:07:03;;;;;;;73.72;21.33;;;;;;;;;;6306878;22;20050;-95
2022/01/13 07:09:30;;;;;;;57.40;20.75;;;;;;;;;;6307398;22;20034;-94
2022/01/13 07:12:01;;;;;;;64.75;19.83;;;;;;;;;;6307538;22;20035;-94
2022/01/13 07:14:32;;;;;;;69.70;21.77;;;;;;;;;;6307283;22;20055;-94
2022/01/13 07:17:00;;;;;;;64.25;20.30;;;;;;;;;;6308375;22;20011;-92
2022/01/13 07:19:29;;;;;;;65.60;21.00;;;;;;;;;;6304531;22;20034;-94
2022/01/13 07:24:32;;;;;;;69.43;22.57;;;;;;;;;;6300855;22;20106;-94
2022/01/13 07:27:03;;;;;;;66.28;23.15;;;;;;;;;;6298233;22;20023;-94
2022/01/13 07:29:31;;;;;;;67.38;20.75;;;;;;;;;;6299424;22;20034;-94
2022/01/13 07:32:03;;;;;;;63.65;20.52;;;;;;;;;;6298938;22;20027;-94
2022/01/13 07:34:43;;;;;;;60.05;21.17;;;;;;;;;;6276233;22;20027;-94
2022/01/13 07:37:14;;;;;;;55.17;18.55;;;;;;;;;;6300911;22;20023;-94
2022/01/13 07:40:02;;;;;;;63.75;20.02;;;;;;;;;;6301045;22;20030;-94
2022/01/13 07:42:30;;;;;;;63.83;21.20;;;;;;;;;;6302036;22;20196;-94
2022/01/13 07:45:05;;;;;;;58.92;20.92;;;;;;;;;;6302261;22;20016;-94
2022/01/13 07:48:12;;;;;;;59.13;20.27;;;;;;;;;;6303134;22;20101;-95
2022/01/13 07:50:39;;;;;;;56.08;19.00;;;;;;;;;;6300757;22;20024;-94
2022/01/13 07:53:10;;;;;;;64.82;21.10;;;;;;;;;;6299915;22;20012;-93
2022/01/13 07:55:55;;;;;;;66.75;20.00;;;;;;;;;;6303608;22;20019;-94
2022/01/13 07:58:48;;;;;;;68.38;21.20;;;;;;;;;;6302076;22;20020;-94
2022/01/13 08:01:29;;;;;;;65.28;22.02;;;;;;;;;;6303921;22;20059;-95
2022/01/13 08:03:56;;;;;;;65.22;21.67;;;;;;;;;;6302184;22;20012;-94
2022/01/13 08:06:27;;;;;;;61.70;22.00;;;;;;;;;;6301649;22;20031;-94
2022/01/13 08:09:26;;;;;;;67.65;22.83;;;;;;;;;;6301741;22;20020;-94
2022/01/13 08:11:55;;;;;;;63.10;20.05;;;;;;;;;;6301940;22;20451;-93
2022/01/13 08:14:26;;;;;;;64.38;20.88;;;;;;;;;;6303091;22;20072;-92
2022/01/13 08:16:57;;;;;;;58.22;19.98;;;;;;;;;;6302971;22;20011;-94
2022/01/13 08:19:46;;;;;;;62.70;20.73;;;;;;;;;;6302132;22;20029;-93
2022/01/13 08:22:15;;;;;;;60.60;18.52;;;;;;;;;;6301072;22;20038;-93
2022/01/13 08:24:46;;;;;;;57.28;20.73;;;;;;;;;;6299284;22;20269;-94
2022/01/13 08:27:19;;;;;;;57.65;19.67;;;;;;;;;;6301919;22;20043;-94
2022/01/13 08:29:51;;;;;;;59.63;21.25;;;;;;;;;;6301382;22;20020;-94
2022/01/13 08:32:18;;;;;;;68.25;22.67;;;;;;;;;;6303216;22;20016;-94
2022/01/13 08:35:05;;;;;;;64.20;22.60;;;;;;;;;;6302168;22;20007;-95
2022/01/13 08:37:33;;;;;;;61.17;20.85;;;;;;;;;;6301363;22;20051;-95
2022/01/13 08:40:01;;;;;;;70.78;22.65;;;;;;;;;;6302165;22;20012;-95
2022/01/13 08:43:04;;;;;;;66.28;21.77;;;;;;;;;;6302447;22;20011;-93
2022/01/13 08:45:34;;;;;;;61.30;23.13;;;;;;;;;;6301337;22;20022;-93
2022/01/13 08:48:03;;;;;;;74.95;24.30;;;;;;;;;;6301526;22;20023;-93
2022/01/13 08:50:33;;;;;;;59.33;21.83;;;;;;;;;;6301313;22;20015;-93
2022/01/13 08:53:04;;;;;;;61.42;21.30;;;;;;;;;;6302409;22;20012;-93
2022/01/13 08:55:32;;;;;;;61.03;21.00;;;;;;;;;;6302370;22;20011;-94
2022/01/13 08:58:11;;;;;;;132.80;24.92;;;;;;;;;;6302837;22;20018;-95
2022/01/13 09:00:47;;;;;;;66.15;22.83;;;;;;;;;;6303828;22;20016;-94
2022/01/13 09:03:14;;;;;;;92.25;24.60;;;;;;;;;;6303434;22;20028;-93
2022/01/13 09:06:00;;;;;;;114.03;26.20;;;;;;;;;;6302351;22;20020;-93
2022/01/13 09:08:41;;;;;;;60.92;22.75;;;;;;;;;;6301938;22;20046;-94
2022/01/13 09:11:12;;;;;;;56.60;21.73;;;;;;;;;;6302825;22;20015;-94
2022/01/13 09:24:18;;;;;;;55.55;21.40;;;;;;;;;;6301596;22;20014;-94
2022/01/13 09:26:59;;;;;;;54.60;21.50;;;;;;;;;;6250524;22;20011;-94
2022/01/13 09:32:02;;;;;;;55.47;20.83;;;;;;;;;;6209091;22;20004;-94
2022/01/13 09:34:31;;;;;;;58.70;23.95;;;;;;;;;;6247708;22;20031;-94
2022/01/13 09:37:01;;;;;;;131.85;24.25;;;;;;;;;;6247924;22;20016;-93
2022/01/13 09:42:58;;;;;;;60.33;21.92;;;;;;;;;;6272871;22;20023;-94
2022/01/13 09:45:42;;;;;;;59.30;21.15;;;;;;;;;;6248514;22;20081;-95
2022/01/13 09:48:27;;;;;;;51.85;21.00;;;;;;;;;;6249091;22;20019;-95
2022/01/13 09:54:47;;;;;;;87.07;21.83;;;;;;;;;;6273209;22;20003;-94
2022/01/13 09:57:19;;;;;;;64.20;21.52;;;;;;;;;;6248122;22;20016;-94
2022/01/13 10:00:30;;;;;;;101.18;23.65;;;;;;;;;;6248963;22;20067;-92
2022/01/13 10:03:15;;;;;;;52.80;19.63;;;;;;;;;;6249281;22;20043;-94
2022/01/13 10:05:48;;;;;;;48.88;19.58;;;;;;;;;;6247026;22;20012;-95
2022/01/13 10:08:21;;;;;;;47.55;20.48;;;;;;;;;;6248710;22;20012;-93
2022/01/13 10:11:18;;;;;;;52.70;20.80;;;;;;;;;;6249447;22;20102;-94
2022/01/13 10:13:51;;;;;;;48.30;19.55;;;;;;;;;;6248896;22;20097;-93
2022/01/13 10:16:53;;;;;;;50.42;20.33;;;;;;;;;;6274639;22;20076;-94
2022/01/13 10:19:30;;;;;;;49.53;18.67;;;;;;;;;;6249208;22;20015;-95
2022/01/13 10:22:20;;;;;;;49.45;19.52;;;;;;;;;;6247924;23;20016;-94
2022/01/13 10:24:50;;;;;;;45.33;17.65;;;;;;;;;;6248803;22;20012;-95
2022/01/13 10:34:15;;;;;;;44.75;19.02;;;;;;;;;;6243944;23;20011;-94
2022/01/13 10:37:06;;;;;;;47.05;19.33;;;;;;;;;;6219662;23;20040;-94
2022/01/13 10:39:52;;;;;;;50.40;20.45;;;;;;;;;;6243706;23;20024;-94
2022/01/13 10:45:26;;;;;;;46.17;18.63;;;;;;;;;;6239684;23;20020;-94
2022/01/13 10:48:31;;;;;;;46.13;19.08;;;;;;;;;;6218334;23;20025;-94
2022/01/13 10:51:02;;;;;;;47.05;18.20;;;;;;;;;;6243090;23;20031;-93
2022/01/13 10:56:12;;;;;;;41.05;18.50;;;;;;;;;;6200469;22;19921;-93
2022/01/13 10:58:51;;;;;;;47.53;16.63;;;;;;;;;;6308686;22;20023;-94
2022/01/13 11:01:34;;;;;;;43.70;17.45;;;;;;;;;;6312219;22;20015;-95
2022/01/13 11:16:56;;;;;;;42.70;18.98;;;;;;;;;;6306657;22;20063;-94
2022/01/13 11:26:53;;;;;;;41.95;17.85;;;;;;;;;;6305707;22;20010;-94
2022/01/13 11:32:59;;;;;;;47.17;18.92;;;;;;;;;;6331764;22;20023;-95
2022/01/13 11:36:04;;;;;;;38.88;17.35;;;;;;;;;;6296598;22;20038;-95
2022/01/13 11:38:31;;;;;;;45.08;18.00;;;;;;;;;;6308600;22;20014;-94
2022/01/13 11:41:09;;;;;;;44.25;18.83;;;;;;;;;;6308616;22;20015;-94
2022/01/13 11:49:43;;;;;;;42.50;18.27;;;;;;;;;;6322664;22;19999;-95
2022/01/13 11:52:30;;;;;;;42.45;17.30;;;;;;;;;;6333986;22;20011;-95
2022/01/13 11:55:28;;;;;;;50.97;18.85;;;;;;;;;;6310460;22;20003;-93
2022/01/13 12:00:42;;;;;;;38.65;17.75;;;;;;;;;;6316722;22;20007;-93
2022/01/13 12:03:24;;;;;;;40.58;16.15;;;;;;;;;;6324318;22;20074;-92
2022/01/13 12:05:55;;;;;;;52.50;18.38;;;;;;;;;;6323159;22;20041;-91
2022/01/13 12:08:34;;;;;;;41.47;17.88;;;;;;;;;;6318263;22;20116;-92
2022/01/13 12:11:01;;;;;;;44.42;19.02;;;;;;;;;;6313203;22;20088;-91
2022/01/13 12:13:31;;;;;;;43.28;17.58;;;;;;;;;;6314895;22;20027;-92
2022/01/13 12:15:58;;;;;;;47.50;19.95;;;;;;;;;;6322858;22;20033;-92
2022/01/13 12:19:06;;;;;;;42.08;19.15;;;;;;;;;;6314805;22;20038;-91
2022/01/13 12:21:44;;;;;;;48.42;18.65;;;;;;;;;;6315801;22;20049;-92
2022/01/13 12:48:09;;;;;;;51.30;22.25;;;;;;;;;;6258291;22;20008;-95
2022/01/13 12:50:53;;;;;;;53.67;21.52;;;;;;;;;;6249914;22;20032;-94
2022/01/13 12:53:54;;;;;;;49.33;21.35;;;;;;;;;;6250067;22;20084;-94
2022/01/13 12:56:38;;;;;;;50.95;21.33;;;;;;;;;;6273949;22;20016;-95
2022/01/13 12:59:40;;;;;;;43.97;19.27;;;;;;;;;;6249985;22;20068;-94
2022/01/13 13:02:09;;;;;;;48.53;20.48;;;;;;;;;;6249174;22;20027;-95
2022/01/13 13:07:29;;;;;;;47.03;19.33;;;;;;;;;;6317044;22;20037;-95
2022/01/13 13:10:03;;;;;;;40.03;17.05;;;;;;;;;;6311910;22;20068;-94
2022/01/13 13:20:35;;;;;;;40.43;17.97;;;;;;;;;;6305641;22;20056;-95
2022/01/13 13:23:18;;;;;;;36.05;16.88;;;;;;;;;;6278368;22;20047;-95
2022/01/13 13:26:05;;;;;;;35.88;16.40;;;;;;;;;;6280324;22;20031;-94
2022/01/13 13:46:00;;;;;;;43.95;16.73;;;;;;;;;;6305306;22;20042;-94
2022/01/13 13:51:30;;;;;;;45.08;17.85;;;;;;;;;;6250614;22;20210;-95
2022/01/13 13:59:54;;;;;;;45.25;17.73;;;;;;;;;;6281298;22;20054;-93
2022/01/13 14:02:50;;;;;;;36.05;16.70;;;;;;;;;;6313295;22;20015;-95
2022/01/13 14:12:45;;;;;;;38.30;16.70;;;;;;;;;;6331994;22;20006;-95
2022/01/13 14:15:45;;;;;;;41.00;16.67;;;;;;;;;;6312080;22;19999;-95
2022/01/13 15:14:10;;;;;;;41.92;17.42;;;;;;;;;;6308284;22;19999;-95
2022/01/13 15:16:51;;;;;;;41.25;17.80;;;;;;;;;;6254898;22;20012;-94
2022/01/13 15:19:31;;;;;;;39.95;17.67;;;;;;;;;;6273168;22;20012;-95
2022/01/13 15:22:01;;;;;;;41.63;17.58;;;;;;;;;;6274440;22;20018;-94
2022/01/13 15:30:39;;;;;;;43.80;18.03;;;;;;;;;;6247078;22;20010;-94
2022/01/13 15:33:06;;;;;;;46.70;19.30;;;;;;;;;;6338168;22;20027;-95
2022/01/13 15:38:25;;;;;;;49.10;19.57;;;;;;;;;;6298451;22;20009;-94
2022/01/13 15:40:55;;;;;;;43.33;19.17;;;;;;;;;;6311319;22;20027;-94
2022/01/13 15:56:52;;;;;;;52.00;24.77;;;;;;;;;;5560538;22;15083939;-95
2022/01/13 15:59:23;;;;;;;58.95;23.67;;;;;;;;;;6214612;22;20035;-95
2022/01/13 16:05:47;;;;;;;63.33;25.15;;;;;;;;;;6215965;22;20014;-94
2022/01/13 16:08:17;;;;;;;63.00;24.98;;;;;;;;;;6215360;22;20013;-95
2022/01/13 16:10:46;;;;;;;62.63;24.65;;;;;;;;;;6215455;22;20031;-94
2022/01/13 16:17:14;;;;;;;54.00;24.00;;;;;;;;;;6216094;22;20096;-96
2022/01/13 16:19:43;;;;;;;61.95;24.90;;;;;;;;;;6215225;22;20051;-95
2022/01/13 16:22:17;;;;;;;57.60;24.65;;;;;;;;;;6215474;22;20065;-95
2022/01/13 16:28:08;;;;;;;62.53;25.73;;;;;;;;;;6216331;22;20000;-95
2022/01/13 16:30:39;;;;;;;60.97;23.92;;;;;;;;;;6215761;22;20073;-95
2022/01/13 16:33:26;;;;;;;66.97;25.75;;;;;;;;;;6213610;22;20032;-93
2022/01/13 16:36:10;;;;;;;58.85;24.75;;;;;;;;;;6210638;22;20081;-94
2022/01/13 16:39:16;;;;;;;;;;;;;;;;;;;;;
2022/01/13 16:42:01;;;;;;;69.68;26.52;;;;;;;;;;6117290;22;20030;-93
2022/01/13 16:44:32;;;;;;;58.00;24.10;;;;;;;;;;6117946;22;20018;-94
2022/01/13 16:47:10;;;;;;;58.63;24.42;;;;;;;;;;6118778;22;20066;-94
2022/01/13 16:49:55;;;;;;;;;;;;;;;;;;;;;
2022/01/13 16:53:00;;;;;;;58.40;23.83;;;;;;;;;;6115897;22;20030;-94
2022/01/13 16:55:56;;;;;;;70.97;27.52;;;;;;;;;;6069209;22;20014;-93
2022/01/13 16:58:48;;;;;;;65.30;26.92;;;;;;;;;;6114093;22;20026;-94
2022/01/13 17:01:26;;;;;;;72.75;27.85;;;;;;;;;;6113231;22;20062;-94
2022/01/13 17:03:57;;;;;;;63.88;25.73;;;;;;;;;;6115575;22;20034;-93
2022/01/13 17:09:20;;;;;;;57.85;26.00;;;;;;;;;;6208488;23;20068;-94
2022/01/13 17:12:21;;;;;;;;;;;;;;;;;;;;;
2022/01/13 17:15:07;;;;;;;60.67;25.25;;;;;;;;;;6194482;23;20029;-94
2022/01/13 17:17:41;;;;;;;70.05;28.48;;;;;;;;;;6178131;23;20025;-94
2022/01/13 17:20:11;;;;;;;62.72;25.00;;;;;;;;;;6177498;23;20039;-94
2022/01/13 17:23:04;;;;;;;64.13;27.27;;;;;;;;;;6148824;22;20227;-93
2022/01/13 17:26:06;;;;;;;67.80;28.70;;;;;;;;;;6177063;22;20025;-94
2022/01/13 17:28:48;;;;;;;64.18;26.65;;;;;;;;;;6170384;23;20033;-93
2022/01/13 17:31:28;;;;;;;69.85;27.60;;;;;;;;;;6172882;23;20021;-94
2022/01/13 17:34:15;;;;;;;60.72;26.77;;;;;;;;;;6173091;23;20474;-94
2022/01/13 17:37:00;;;;;;;62.95;26.05;;;;;;;;;;6196209;23;20025;-93
2022/01/13 17:39:29;;;;;;;62.72;27.27;;;;;;;;;;6169240;23;20021;-94
2022/01/13 17:41:58;;;;;;;61.78;28.65;;;;;;;;;;6169171;23;20025;-93
2022/01/13 17:44:38;;;;;;;64.10;28.77;;;;;;;;;;6170457;23;20422;-93
2022/01/13 17:47:18;;;;;;;67.43;28.05;;;;;;;;;;6172308;23;20013;-94
2022/01/13 17:49:48;;;;;;;61.47;26.98;;;;;;;;;;6171584;23;20009;-94
2022/01/13 17:52:20;;;;;;;67.28;28.00;;;;;;;;;;6172601;23;20013;-94
2022/01/13 17:54:57;;;;;;;73.78;29.70;;;;;;;;;;6173607;23;20013;-94
2022/01/13 17:57:26;;;;;;;60.50;26.98;;;;;;;;;;6173468;22;20021;-93
2022/01/13 17:59:55;;;;;;;68.07;28.80;;;;;;;;;;6169482;23;20046;-93
2022/01/13 18:02:23;;;;;;;60.85;27.85;;;;;;;;;;6172520;22;20209;-93
2022/01/13 18:04:50;;;;;;;74.60;29.05;;;;;;;;;;6177579;22;20028;-94
2022/01/13 18:07:26;;;;;;;64.35;28.45;;;;;;;;;;6179825;22;20035;-94
2022/01/13 18:09:53;;;;;;;61.22;29.83;;;;;;;;;;6204528;22;20020;-94
2022/01/13 18:12:24;;;;;;;73.95;30.38;;;;;;;;;;6200914;22;20425;-95
2022/01/13 18:15:19;;;;;;;62.13;28.00;;;;;;;;;;6198694;23;20044;-94
2022/01/13 18:17:46;;;;;;;61.90;28.90;;;;;;;;;;6201728;22;20021;-94
2022/01/13 18:20:14;;;;;;;63.97;28.45;;;;;;;;;;6199577;23;20025;-94
2022/01/13 18:22:56;;;;;;;65.65;29.90;;;;;;;;;;6198811;22;20024;-95
2022/01/13 18:25:37;;;;;;;71.25;30.25;;;;;;;;;;6218715;23;20021;-92
2022/01/13 18:28:05;;;;;;;65.82;30.48;;;;;;;;;;6200638;23;20031;-92
2022/01/13 18:30:34;;;;;;;71.82;29.77;;;;;;;;;;6201656;22;20024;-93
2022/01/13 18:33:20;;;;;;;71.15;29.77;;;;;;;;;;6201521;23;20021;-94
2022/01/13 18:35:47;;;;;;;63.22;29.88;;;;;;;;;;6201991;22;20028;-94
2022/01/13 18:38:13;;;;;;;64.18;30.95;;;;;;;;;;6204819;22;20009;-94
2022/01/13 18:41:28;;;;;;;60.63;29.00;;;;;;;;;;6202636;22;20017;-95
2022/01/13 18:44:03;;;;;;;74.55;30.63;;;;;;;;;;6205581;22;20056;-94
2022/01/13 18:46:49;;;;;;;66.78;29.38;;;;;;;;;;6203768;22;20009;-94
2022/01/13 18:49:30;;;;;;;71.45;30.95;;;;;;;;;;6205374;22;20113;-94
2022/01/13 18:51:57;;;;;;;71.43;32.35;;;;;;;;;;6204887;23;20030;-95
2022/01/13 18:58:00;;;;;;;66.90;29.30;;;;;;;;;;6204814;22;20043;-93
2022/01/13 19:00:28;;;;;;;73.78;30.60;;;;;;;;;;6207243;22;20045;-93
2022/01/13 19:02:56;;;;;;;66.53;29.98;;;;;;;;;;6207814;22;20009;-94
2022/01/13 19:05:33;;;;;;;57.63;29.40;;;;;;;;;;6207649;22;20051;-94
2022/01/13 19:08:14;;;;;;;62.75;29.45;;;;;;;;;;6204735;23;20045;-92
2022/01/13 19:10:44;;;;;;;69.55;31.50;;;;;;;;;;6216363;23;20024;-94
2022/01/13 19:13:58;;;;;;;69.95;31.52;;;;;;;;;;6217896;23;20024;-94
2022/01/13 19:16:46;;;;;;;68.47;30.33;;;;;;;;;;6215146;23;20013;-94
2022/01/13 19:19:32;;;;;;;65.70;30.63;;;;;;;;;;6218126;23;20012;-94
2022/01/13 19:22:12;;;;;;;69.88;30.40;;;;;;;;;;6213530;23;20028;-94
2022/01/13 19:24:53;;;;;;;60.45;30.08;;;;;;;;;;6207267;23;20268;-94
2022/01/13 19:27:37;;;;;;;62.20;30.83;;;;;;;;;;6211313;23;20022;-93
2022/01/13 19:30:25;;;;;;;64.88;30.90;;;;;;;;;;6213306;23;20035;-94
2022/01/13 19:33:27;;;;;;;65.63;30.20;;;;;;;;;;6215739;23;20012;-95
2022/01/13 19:35:55;;;;;;;61.47;28.73;;;;;;;;;;6214734;23;20035;-94
2022/01/13 19:38:22;;;;;;;63.10;30.33;;;;;;;;;;6215025;23;20016;-92
2022/01/13 19:41:10;;;;;;;68.00;30.30;;;;;;;;;;6217262;23;20024;-94
2022/01/13 19:43:47;;;;;;;67.93;29.65;;;;;;;;;;6214973;23;20013;-93
2022/01/13 19:46:18;;;;;;;74.43;32.80;;;;;;;;;;6213743;23;20084;-94
2022/01/13 19:49:08;;;;;;;71.43;31.73;;;;;;;;;;6213585;23;20025;-94
2022/01/13 19:51:48;;;;;;;62.85;31.10;;;;;;;;;;6205232;22;20035;-95
2022/01/13 19:54:48;;;;;;;57.72;28.40;;;;;;;;;;6204251;22;20009;-95
2022/01/13 19:57:23;;;;;;;59.60;27.90;;;;;;;;;;6205088;22;20020;-93
2022/01/13 20:00:44;;;;;;;67.50;28.50;;;;;;;;;;6207320;22;20060;-93
2022/01/13 20:03:22;;;;;;;67.63;29.45;;;;;;;;;;6204449;22;20009;-94
2022/01/13 20:05:51;;;;;;;63.03;28.10;;;;;;;;;;6205133;22;20021;-95
2022/01/13 20:08:18;;;;;;;66.85;29.05;;;;;;;;;;6205022;22;20050;-93
2022/01/13 20:11:00;;;;;;;63.42;28.23;;;;;;;;;;6202061;22;20035;-94
2022/01/13 20:13:36;;;;;;;58.45;27.98;;;;;;;;;;6204845;22;20013;-93
2022/01/13 20:16:06;;;;;;;55.53;27.52;;;;;;;;;;6206176;22;20013;-94
2022/01/13 20:18:37;;;;;;;55.47;28.75;;;;;;;;;;6206890;22;20009;-94
2022/01/13 20:21:07;;;;;;;52.17;25.20;;;;;;;;;;6205900;22;20021;-94
2022/01/13 20:23:56;;;;;;;60.17;27.00;;;;;;;;;;6204676;22;20013;-94
2022/01/13 20:26:44;;;;;;;58.50;28.30;;;;;;;;;;6206098;22;20001;-95
2022/01/13 20:29:17;;;;;;;59.63;28.45;;;;;;;;;;6205505;22;20029;-93
2022/01/13 20:31:46;;;;;;;63.55;28.42;;;;;;;;;;6206805;22;20051;-93
2022/01/13 20:34:13;;;;;;;64.32;28.52;;;;;;;;;;6206235;22;20034;-94
2022/01/13 20:36:54;;;;;;;62.15;28.95;;;;;;;;;;6207176;22;20029;-94
2022/01/13 20:39:22;;;;;;;61.75;28.23;;;;;;;;;;6207238;22;20063;-94
2022/01/13 20:42:03;;;;;;;52.28;26.27;;;;;;;;;;6208174;22;20061;-94
2022/01/13 20:44:30;;;;;;;55.15;26.02;;;;;;;;;;6207214;22;20032;-94
2022/01/13 20:47:12;;;;;;;48.55;23.73;;;;;;;;;;6206613;22;20072;-94
2022/01/13 20:50:21;;;;;;;47.65;23.00;;;;;;;;;;6209438;22;20007;-93
2022/01/13 20:53:04;;;;;;;45.75;21.17;;;;;;;;;;6206710;22;20021;-95
2022/01/13 20:55:34;;;;;;;32.67;18.85;;;;;;;;;;6206058;22;20025;-95
2022/01/13 21:00:44;;;;;;;30.88;15.52;;;;;;;;;;6230446;22;19904;-94
2022/01/13 21:03:14;;;;;;;40.05;16.98;;;;;;;;;;6209737;23;20043;-94
2022/01/13 21:05:40;;;;;;;36.70;16.27;;;;;;;;;;6208191;23;20021;-93
2022/01/13 21:08:20;;;;;;;42.40;16.58;;;;;;;;;;6207652;23;20021;-94
2022/01/13 21:10:54;;;;;;;29.23;14.82;;;;;;;;;;6209106;22;20020;-94
2022/01/13 21:13:22;;;;;;;29.67;14.52;;;;;;;;;;6232162;23;20025;-93
2022/01/13 21:16:16;;;;;;;33.45;15.68;;;;;;;;;;6206083;22;20024;-93
2022/01/13 21:18:42;;;;;;;34.67;16.38;;;;;;;;;;6208465;22;20019;-93
2022/01/13 21:21:10;;;;;;;28.08;15.20;;;;;;;;;;6210799;22;20038;-93
2022/01/13 21:23:37;;;;;;;31.60;16.05;;;;;;;;;;6209598;23;20039;-93
2022/01/13 21:26:04;;;;;;;35.45;14.80;;;;;;;;;;6212205;22;20030;-93
2022/01/13 21:28:32;;;;;;;27.88;14.00;;;;;;;;;;6208590;22;20037;-93
2022/01/13 21:31:00;;;;;;;26.70;14.07;;;;;;;;;;6207471;23;20103;-94
2022/01/13 21:33:32;;;;;;;36.17;14.23;;;;;;;;;;6206252;23;20054;-93
2022/01/13 21:36:19;;;;;;;32.00;14.85;;;;;;;;;;6209786;23;20076;-93
2022/01/13 21:38:50;;;;;;;32.65;15.82;;;;;;;;;;6206818;23;20335;-93
2022/01/13 21:41:24;;;;;;;37.35;15.82;;;;;;;;;;6206294;23;20028;-93
2022/01/13 21:43:52;;;;;;;36.30;17.70;;;;;;;;;;6205580;22;20030;-93
2022/01/13 21:46:20;;;;;;;38.67;18.10;;;;;;;;;;6204444;23;20442;-93
2022/01/13 21:48:49;;;;;;;41.00;20.70;;;;;;;;;;6206245;23;20021;-94
2022/01/13 21:51:20;;;;;;;37.53;20.80;;;;;;;;;;6205433;22;20025;-94
2022/01/13 21:53:47;;;;;;;45.13;21.48;;;;;;;;;;6210090;22;20035;-94
2022/01/13 21:56:13;;;;;;;40.42;19.98;;;;;;;;;;6211765;23;20036;-93
2022/01/13 21:58:40;;;;;;;49.15;18.13;;;;;;;;;;6211383;22;20012;-94
2022/01/13 22:01:07;;;;;;;39.22;18.42;;;;;;;;;;6211095;22;20027;-93
2022/01/13 22:03:35;;;;;;;49.33;22.10;;;;;;;;;;6212246;22;20017;-93
2022/01/13 22:06:03;;;;;;;45.50;19.77;;;;;;;;;;6236156;22;20016;-92
2022/01/13 22:11:07;;;;;;;48.60;18.70;;;;;;;;;;6237784;22;20070;-94
2022/01/13 22:16:56;;;;;;;44.30;19.55;;;;;;;;;;6235705;22;20021;-94
2022/01/13 22:19:23;;;;;;;47.85;21.23;;;;;;;;;;6211645;23;20039;-94
2022/01/13 22:21:58;;;;;;;38.30;18.48;;;;;;;;;;6212629;23;20038;-94
2022/01/13 22:24:26;;;;;;;44.45;20.33;;;;;;;;;;6212729;22;20025;-94
2022/01/13 22:27:17;;;;;;;42.03;18.67;;;;;;;;;;6217692;23;20084;-94
2022/01/13 22:29:44;;;;;;;36.42;20.13;;;;;;;;;;6211862;22;20013;-94
2022/01/13 22:32:15;;;;;;;47.60;20.40;;;;;;;;;;6237212;22;20009;-93
2022/01/13 22:35:11;;;;;;;42.40;19.30;;;;;;;;;;6212787;22;20056;-94
2022/01/13 22:37:39;;;;;;;39.53;20.75;;;;;;;;;;6212640;23;20037;-94
2022/01/13 22:40:11;;;;;;;37.80;18.88;;;;;;;;;;6215056;22;20012;-93
2022/01/13 22:42:41;;;;;;;51.15;20.13;;;;;;;;;;6211780;22;20034;-94
2022/01/13 22:45:10;;;;;;;42.78;18.80;;;;;;;;;;6211974;22;20013;-93
2022/01/13 22:47:42;;;;;;;46.95;19.40;;;;;;;;;;6211938;23;20026;-94
2022/01/13 22:50:09;;;;;;;40.42;18.00;;;;;;;;;;6212313;23;20038;-93
2022/01/13 22:52:37;;;;;;;38.30;17.75;;;;;;;;;;6187529;23;20020;-93
2022/01/13 22:55:05;;;;;;;32.65;16.75;;;;;;;;;;6212286;23;20009;-92
2022/01/13 22:57:36;;;;;;;28.10;16.00;;;;;;;;;;6212524;22;20013;-92
2022/01/13 23:00:07;;;;;;;38.17;17.80;;;;;;;;;;6226116;22;20065;-92
2022/01/13 23:02:34;;;;;;;42.45;17.70;;;;;;;;;;6236895;23;20072;-92
2022/01/13 23:05:01;;;;;;;38.13;17.58;;;;;;;;;;6236413;22;20013;-94
2022/01/13 23:07:30;;;;;;;31.38;17.50;;;;;;;;;;6236589;23;20025;-93
2022/01/13 23:09:58;;;;;;;33.65;16.65;;;;;;;;;;6235496;23;20025;-93
2022/01/13 23:12:35;;;;;;;33.72;16.90;;;;;;;;;;6235915;23;20040;-94
2022/01/13 23:23:27;;;;;;;39.75;16.25;;;;;;;;;;6236026;23;20062;-92
2022/01/13 23:25:54;;;;;;;35.38;14.63;;;;;;;;;;6235781;23;20027;-94
2022/01/13 23:28:21;;;;;;;28.95;14.40;;;;;;;;;;6235310;23;20025;-93
2022/01/13 23:30:48;;;;;;;26.48;14.77;;;;;;;;;;6236275;23;20004;-93
2022/01/13 23:33:35;;;;;;;37.95;14.52;;;;;;;;;;6232619;22;20035;-93
2022/01/13 23:36:03;;;;;;;30.98;14.20;;;;;;;;;;6230442;23;20036;-93
2022/01/13 23:38:29;;;;;;;32.25;13.07;;;;;;;;;;6230831;23;20031;-93
2022/01/13 23:41:05;;;;;;;38.65;13.45;;;;;;;;;;6234521;23;20009;-94
2022/01/13 23:43:34;;;;;;;19.70;10.70;;;;;;;;;;6235670;23;20020;-93
2022/01/13 23:49:04;;;;;;;25.98;11.70;;;;;;;;;;6237366;22;20028;-93
2022/01/13 23:51:30;;;;;;;23.52;11.38;;;;;;;;;;6231989;23;20036;-93
2022/01/13 23:53:58;;;;;;;31.95;12.85;;;;;;;;;;6229690;23;20039;-93
2022/01/13 23:56:25;;;;;;;23.08;12.43;;;;;;;;;;6229616;23;20021;-93
2022/01/13 23:58:52;;;;;;;29.80;11.98;;;;;;;;;;6228639;23;20024;-93
